Time;durP1;ratioP1;P1;durP2;ratioP2;P2;SDS_P1;SDS_P2;PMS_P1;PMS_P2;Temp;Humidity;BMP_temperature;BMP_pressure;BME280_temperature;BME280_humidity;BME280_pressure;Samples;Min_cycle;Max_cycle;Signal;HPM_P1;HPM_P2
2022/05/19 00:01:23;;;;;;;1.17;0.98;;;15.00;99.90;;;;;;4896527;29;20072;-83
2022/05/19 00:03:49;;;;;;;2.47;0.95;;;15.00;99.90;;;;;;4903351;29;20103;-82
2022/05/19 00:06:15;;;;;;;2.20;0.85;;;15.00;99.90;;;;;;4896733;29;20019;-83
2022/05/19 00:08:41;;;;;;;3.58;0.93;;;15.00;99.90;;;;;;4897252;29;20028;-83
2022/05/19 00:11:13;;;;;;;4.93;1.23;;;15.00;99.90;;;;;;4896696;29;20031;-83
2022/05/19 00:13:39;;;;;;;4.05;1.17;;;14.90;99.90;;;;;;4896252;29;20055;-83
2022/05/19 00:16:05;;;;;;;2.95;1.20;;;15.00;99.90;;;;;;4896959;29;20466;-83
2022/05/19 00:18:32;;;;;;;3.75;1.60;;;14.90;99.90;;;;;;4896480;29;20028;-83
2022/05/19 00:20:59;;;;;;;3.20;1.00;;;15.00;99.90;;;;;;4896710;29;20068;-83
2022/05/19 00:23:24;;;;;;;1.48;0.90;;;15.00;99.90;;;;;;4896268;29;20028;-83
2022/05/19 00:25:50;;;;;;;1.35;1.00;;;15.00;99.90;;;;;;4896539;29;20032;-83
2022/05/19 00:28:16;;;;;;;2.75;1.00;;;14.90;99.90;;;;;;4895826;29;20020;-83
2022/05/19 00:30:43;;;;;;;1.25;0.77;;;14.90;99.90;;;;;;4896008;29;20084;-83
2022/05/19 00:33:09;;;;;;;4.07;1.48;;;14.90;99.90;;;;;;4896833;29;20059;-84
2022/05/19 00:35:37;;;;;;;4.00;1.10;;;14.80;99.90;;;;;;4886211;29;20032;-83
2022/05/19 00:38:03;;;;;;;4.78;1.73;;;14.80;99.90;;;;;;4896747;29;20024;-82
2022/05/19 00:40:29;;;;;;;2.78;1.33;;;14.80;99.90;;;;;;4902260;29;20037;-83
2022/05/19 00:42:55;;;;;;;5.93;1.58;;;14.80;99.90;;;;;;4896602;29;20028;-83
2022/05/19 00:45:37;;;;;;;5.70;1.08;;;14.80;99.90;;;;;;4895890;29;20024;-82
2022/05/19 00:48:40;;;;;;;2.65;1.38;;;14.90;99.90;;;;;;4896629;29;20016;-83
2022/05/19 00:51:08;;;;;;;1.10;1.00;;;14.80;99.90;;;;;;4896140;29;20501;-83
2022/05/19 00:53:49;;;;;;;1.60;1.10;;;14.80;99.90;;;;;;4895267;29;20028;-83
2022/05/19 00:56:24;;;;;;;1.27;1.08;;;14.80;99.90;;;;;;4896251;29;20029;-82
2022/05/19 00:59:08;;;;;;;2.25;1.38;;;14.80;99.90;;;;;;4903040;29;20028;-82
2022/05/19 01:01:37;;;;;;;1.38;0.88;;;14.70;99.90;;;;;;4895921;29;20033;-83
2022/05/19 01:04:28;;;;;;;2.88;1.35;;;14.70;99.90;;;;;;4896392;29;20027;-83
2022/05/19 01:07:01;;;;;;;1.83;1.47;;;14.70;99.90;;;;;;4895857;29;20036;-83
2022/05/19 01:09:34;;;;;;;2.47;1.50;;;14.70;99.90;;;;;;4898792;29;20027;-82
2022/05/19 01:12:01;;;;;;;2.53;1.00;;;14.70;99.90;;;;;;4895963;29;20020;-83
2022/05/19 01:14:27;;;;;;;1.83;1.20;;;14.70;99.90;;;;;;4894528;29;20044;-83
2022/05/19 01:16:53;;;;;;;2.38;1.10;;;14.60;99.90;;;;;;4896096;29;20033;-83
2022/05/19 01:19:41;;;;;;;1.70;1.25;;;14.60;99.90;;;;;;4894927;29;20044;-83
2022/05/19 01:22:16;;;;;;;2.60;1.20;;;14.50;99.90;;;;;;4896785;29;20072;-82
2022/05/19 01:25:23;;;;;;;1.73;1.13;;;14.50;99.90;;;;;;4895936;29;20425;-83
2022/05/19 01:27:49;;;;;;;1.58;1.38;;;14.50;99.90;;;;;;4872633;29;20774;-82
2022/05/19 01:30:15;;;;;;;4.13;1.38;;;14.50;99.90;;;;;;4895551;29;20133;-82
2022/05/19 01:32:41;;;;;;;3.75;1.23;;;14.50;99.90;;;;;;4898746;29;20095;-83
2022/05/19 01:35:08;;;;;;;3.42;1.23;;;14.50;99.90;;;;;;4898847;29;20051;-83
2022/05/19 01:37:34;;;;;;;2.05;1.20;;;14.40;99.90;;;;;;4900089;29;20025;-83
2022/05/19 01:40:22;;;;;;;3.30;1.40;;;14.40;99.90;;;;;;4899421;29;20541;-82
2022/05/19 01:43:04;;;;;;;2.08;1.23;;;14.50;99.90;;;;;;4899972;29;20079;-83
2022/05/19 01:45:33;;;;;;;;;;;14.50;99.90;;;;;;4899650;29;20088;-82
2022/05/19 01:48:24;;;;;;;2.42;0.93;;;14.60;99.90;;;;;;4882727;29;20317;-83
2022/05/19 01:51:11;;;;;;;2.45;1.42;;;14.60;99.90;;;;;;4877229;29;20068;-83
2022/05/19 01:53:56;;;;;;;1.45;1.33;;;14.50;99.90;;;;;;4903757;29;20110;-82
2022/05/19 01:56:25;;;;;;;2.63;1.48;;;14.50;99.90;;;;;;4882351;29;20123;-82
2022/05/19 01:59:02;;;;;;;3.90;1.30;;;14.50;99.90;;;;;;4899296;29;20032;-82
2022/05/19 02:01:28;;;;;;;2.38;1.08;;;14.60;99.90;;;;;;4898826;29;20028;-82
2022/05/19 02:04:07;;;;;;;6.15;1.40;;;14.60;99.90;;;;;;4883849;29;20029;-82
2022/05/19 02:06:43;;;;;;;2.15;1.38;;;14.70;99.90;;;;;;4898899;29;20028;-82
2022/05/19 02:09:32;;;;;;;3.67;1.70;;;14.70;99.90;;;;;;4898330;29;20378;-82
2022/05/19 02:12:00;;;;;;;1.95;1.30;;;14.70;99.90;;;;;;4899400;29;20041;-82
2022/05/19 02:14:40;;;;;;;1.98;1.40;;;14.80;99.90;;;;;;4899472;29;20598;-82
2022/05/19 02:17:09;;;;;;;3.15;1.42;;;14.70;99.90;;;;;;4904164;29;20024;-82
2022/05/19 02:19:39;;;;;;;4.38;1.15;;;14.70;99.90;;;;;;4897023;29;20047;-82
2022/05/19 02:22:09;;;;;;;2.50;1.20;;;14.70;99.90;;;;;;4899517;29;20027;-83
2022/05/19 02:24:39;;;;;;;5.10;1.55;;;14.70;99.90;;;;;;4898951;29;20052;-82
2022/05/19 02:27:47;;;;;;;3.88;1.50;;;14.60;99.90;;;;;;4898983;29;20024;-82
2022/05/19 02:30:19;;;;;;;1.35;1.20;;;14.60;99.90;;;;;;4819851;29;20035;-83
2022/05/19 02:32:45;;;;;;;1.90;1.50;;;14.60;99.90;;;;;;4821071;29;20026;-83
2022/05/19 02:35:12;;;;;;;4.82;1.63;;;14.50;99.90;;;;;;4864848;29;20032;-81
2022/05/19 02:37:38;;;;;;;4.70;2.13;;;14.50;99.90;;;;;;4898937;29;20508;-84
2022/05/19 02:40:05;;;;;;;1.83;1.58;;;14.50;99.90;;;;;;4898143;29;20506;-81
2022/05/19 02:42:31;;;;;;;2.40;1.85;;;14.50;99.90;;;;;;4898279;29;20072;-82
2022/05/19 02:44:57;;;;;;;2.55;1.30;;;14.40;99.90;;;;;;4896783;29;20035;-81
2022/05/19 02:47:23;;;;;;;2.10;1.30;;;14.40;99.90;;;;;;4902613;29;20020;-83
2022/05/19 02:49:49;;;;;;;2.13;1.05;;;14.30;99.90;;;;;;4898209;29;20037;-82
2022/05/19 02:52:15;;;;;;;2.15;1.63;;;14.20;99.90;;;;;;4898566;29;20027;-85
2022/05/19 02:54:41;;;;;;;1.60;1.23;;;14.20;99.90;;;;;;4901728;29;20029;-83
2022/05/19 02:57:07;;;;;;;2.33;1.40;;;14.10;99.90;;;;;;4898322;29;20020;-82
2022/05/19 02:59:32;;;;;;;1.92;1.45;;;14.00;99.90;;;;;;4896730;29;20041;-82
2022/05/19 03:01:58;;;;;;;2.78;1.02;;;14.10;99.90;;;;;;4899203;29;20028;-82
2022/05/19 03:04:24;;;;;;;2.03;1.30;;;14.10;99.90;;;;;;4898306;29;20021;-82
2022/05/19 03:06:50;;;;;;;3.88;1.95;;;14.20;99.90;;;;;;4897777;29;20017;-81
2022/05/19 03:09:16;;;;;;;1.65;1.23;;;14.20;99.90;;;;;;4897025;29;20031;-82
2022/05/19 03:11:41;;;;;;;3.50;1.40;;;14.20;99.90;;;;;;4898622;29;20032;-81
2022/05/19 03:14:07;;;;;;;4.95;1.50;;;14.20;99.90;;;;;;4897938;29;20020;-82
2022/05/19 03:16:33;;;;;;;2.70;1.80;;;14.20;99.90;;;;;;4898274;29;20107;-81
2022/05/19 03:18:59;;;;;;;7.70;1.90;;;14.20;99.90;;;;;;4898363;29;20025;-82
2022/05/19 03:21:24;;;;;;;5.43;1.98;;;14.20;99.90;;;;;;4897425;29;20391;-82
2022/05/19 03:23:51;;;;;;;7.57;1.98;;;14.10;99.90;;;;;;4897041;29;20025;-81
2022/05/19 03:26:16;;;;;;;4.82;1.45;;;14.10;99.90;;;;;;4897389;29;20053;-81
2022/05/19 03:28:42;;;;;;;6.07;1.85;;;14.00;99.90;;;;;;4897923;29;20024;-81
2022/05/19 03:31:09;;;;;;;3.65;1.75;;;14.10;99.90;;;;;;4897314;29;20025;-81
2022/05/19 03:33:35;;;;;;;3.58;1.77;;;14.00;99.90;;;;;;4881660;29;20021;-81
2022/05/19 03:36:03;;;;;;;8.00;1.90;;;13.90;99.90;;;;;;4896901;29;20100;-82
2022/05/19 03:38:29;;;;;;;10.30;2.03;;;13.90;99.90;;;;;;4897632;29;20108;-81
2022/05/19 03:40:55;;;;;;;2.75;1.85;;;13.80;99.90;;;;;;4898795;29;20112;-82
2022/05/19 03:43:20;;;;;;;7.00;2.13;;;13.70;99.90;;;;;;4897948;29;20017;-81
2022/05/19 03:45:47;;;;;;;4.38;1.80;;;13.70;99.90;;;;;;4897087;29;20032;-82
2022/05/19 03:48:13;;;;;;;3.28;1.98;;;13.70;99.90;;;;;;4896208;29;20035;-81
2022/05/19 03:50:44;;;;;;;6.25;2.05;;;13.70;99.90;;;;;;4896775;29;20115;-82
2022/05/19 03:53:10;;;;;;;7.38;2.28;;;13.70;99.90;;;;;;4899569;29;20473;-81
2022/05/19 03:55:36;;;;;;;4.35;1.70;;;13.60;99.90;;;;;;4896939;29;20024;-83
2022/05/19 03:58:02;;;;;;;3.92;1.42;;;13.60;99.90;;;;;;4896892;29;20107;-82
2022/05/19 04:00:28;;;;;;;3.38;1.67;;;13.50;99.90;;;;;;4901693;29;20032;-81
2022/05/19 04:02:54;;;;;;;5.55;1.55;;;13.50;99.90;;;;;;4896597;29;20545;-83
2022/05/19 04:05:19;;;;;;;3.10;2.17;;;13.50;99.90;;;;;;4879337;29;20049;-82
2022/05/19 04:07:45;;;;;;;4.32;1.40;;;13.50;99.90;;;;;;4897633;29;20028;-82
2022/05/19 04:10:12;;;;;;;3.47;1.73;;;13.50;99.90;;;;;;4896772;29;20059;-83
2022/05/19 04:12:38;;;;;;;2.13;1.58;;;13.50;99.90;;;;;;4896703;29;20024;-81
2022/05/19 04:15:07;;;;;;;4.05;1.35;;;13.50;99.90;;;;;;4895591;29;20092;-81
2022/05/19 04:17:34;;;;;;;2.83;1.80;;;13.50;99.90;;;;;;4879608;29;20028;-81
2022/05/19 04:20:05;;;;;;;5.63;2.38;;;13.60;99.90;;;;;;4896386;29;20631;-82
2022/05/19 04:22:31;;;;;;;4.45;1.90;;;13.60;99.90;;;;;;4896867;29;20025;-81
2022/05/19 04:25:00;;;;;;;2.67;1.90;;;13.70;99.90;;;;;;4895904;29;20036;-81
2022/05/19 04:27:27;;;;;;;6.65;2.10;;;13.80;99.90;;;;;;4895720;29;20025;-81
2022/05/19 04:29:54;;;;;;;2.90;1.83;;;13.80;99.90;;;;;;4900948;29;20058;-81
2022/05/19 04:32:20;;;;;;;3.83;2.20;;;13.80;99.90;;;;;;4896132;29;20077;-81
2022/05/19 04:34:45;;;;;;;7.47;2.50;;;13.90;99.90;;;;;;4895459;29;20036;-81
2022/05/19 04:37:11;;;;;;;6.25;2.40;;;13.80;99.90;;;;;;4896858;29;20025;-81
2022/05/19 04:39:38;;;;;;;3.03;2.20;;;13.80;99.90;;;;;;4895600;29;20128;-81
2022/05/19 04:42:11;;;;;;;4.50;2.00;;;13.80;99.90;;;;;;4901618;29;20430;-81
2022/05/19 04:44:38;;;;;;;11.52;2.55;;;13.80;99.90;;;;;;4895223;29;20032;-82
2022/05/19 04:47:04;;;;;;;6.53;2.50;;;13.80;99.90;;;;;;4896410;29;20043;-82
2022/05/19 04:49:30;;;;;;;6.53;2.70;;;13.90;99.90;;;;;;4896394;29;20529;-82
2022/05/19 04:51:56;;;;;;;9.05;2.53;;;14.00;99.90;;;;;;4879544;29;20382;-82
2022/05/19 04:54:23;;;;;;;8.00;2.70;;;14.00;99.90;;;;;;4896036;29;20021;-82
2022/05/19 04:56:50;;;;;;;7.47;2.63;;;14.10;99.90;;;;;;4895746;29;20530;-82
2022/05/19 04:59:16;;;;;;;10.60;3.47;;;14.20;99.90;;;;;;4899995;29;20043;-81
2022/05/19 05:01:42;;;;;;;11.13;3.30;;;14.30;99.90;;;;;;4896151;29;20115;-81
2022/05/19 05:04:08;;;;;;;12.35;4.82;;;14.40;99.90;;;;;;4896207;29;20598;-81
2022/05/19 05:06:34;;;;;;;7.03;3.83;;;14.50;99.90;;;;;;4895171;29;20088;-81
2022/05/19 05:08:59;;;;;;;11.63;5.82;;;14.50;99.90;;;;;;4896516;29;20062;-82
2022/05/19 05:11:25;;;;;;;18.27;8.52;;;14.60;99.90;;;;;;4878300;29;20153;-82
2022/05/19 05:13:51;;;;;;;19.42;7.40;;;14.50;99.90;;;;;;4896097;29;20486;-83
2022/05/19 05:16:17;;;;;;;16.90;7.40;;;14.50;99.90;;;;;;4896395;29;20029;-82
2022/05/19 05:18:42;;;;;;;15.52;7.63;;;14.50;99.90;;;;;;4896085;29;20513;-82
2022/05/19 05:21:11;;;;;;;22.42;8.63;;;14.50;99.90;;;;;;4895831;29;20060;-82
2022/05/19 05:23:37;;;;;;;22.08;9.13;;;14.40;99.90;;;;;;4896461;29;20505;-82
2022/05/19 05:26:03;;;;;;;17.67;8.48;;;14.40;99.90;;;;;;4896006;29;20033;-82
2022/05/19 05:28:30;;;;;;;21.48;9.00;;;14.40;99.90;;;;;;4899779;29;20032;-80
2022/05/19 05:30:56;;;;;;;22.85;9.05;;;14.40;99.90;;;;;;4895459;29;20529;-81
2022/05/19 05:33:21;;;;;;;18.73;8.52;;;14.40;99.90;;;;;;4895318;29;20056;-81
2022/05/19 05:35:47;;;;;;;16.75;8.73;;;14.40;99.90;;;;;;4894893;29;20028;-81
2022/05/19 05:38:13;;;;;;;16.00;7.55;;;14.40;99.90;;;;;;4896163;29;20534;-81
2022/05/19 05:40:38;;;;;;;13.23;7.72;;;14.40;99.90;;;;;;4895756;29;20148;-81
2022/05/19 05:43:18;;;;;;;26.00;8.70;;;14.50;99.90;;;;;;4895903;29;20355;-81
2022/05/19 05:45:45;;;;;;;16.27;8.27;;;14.40;99.90;;;;;;4895194;29;20072;-81
2022/05/19 05:48:12;;;;;;;16.05;8.05;;;14.40;99.90;;;;;;4879588;29;20020;-82
2022/05/19 05:50:39;;;;;;;11.50;7.05;;;14.40;99.90;;;;;;4895956;29;20033;-81
2022/05/19 05:53:06;;;;;;;15.45;7.70;;;14.50;99.90;;;;;;4879265;29;20377;-84
2022/05/19 05:55:32;;;;;;;17.05;8.80;;;14.50;99.90;;;;;;4878591;29;20032;-82
2022/05/19 05:57:58;;;;;;;16.10;9.05;;;14.50;99.90;;;;;;4900091;29;20023;-83
2022/05/19 06:00:25;;;;;;;16.05;8.77;;;14.50;99.90;;;;;;4895763;29;20033;-82
2022/05/19 06:02:51;;;;;;;15.65;7.97;;;14.50;99.90;;;;;;4900784;29;20108;-82
2022/05/19 06:05:18;;;;;;;18.25;9.52;;;14.50;99.90;;;;;;4895140;29;20168;-82
2022/05/19 06:07:44;;;;;;;12.32;7.95;;;14.50;99.90;;;;;;4895794;29;20406;-82
2022/05/19 06:10:11;;;;;;;13.73;7.93;;;14.50;99.90;;;;;;4895030;29;20040;-82
2022/05/19 06:12:38;;;;;;;16.10;6.72;;;14.50;99.90;;;;;;4896229;29;20020;-82
2022/05/19 06:15:04;;;;;;;10.90;6.20;;;14.50;99.90;;;;;;4895295;29;20028;-81
2022/05/19 06:17:30;;;;;;;11.60;6.80;;;14.50;99.90;;;;;;4895355;29;20020;-81
2022/05/19 06:19:56;;;;;;;9.48;5.93;;;14.60;99.90;;;;;;4899954;29;20040;-82
2022/05/19 06:22:22;;;;;;;12.93;6.57;;;14.60;99.90;;;;;;4899530;29;20021;-82
2022/05/19 06:24:49;;;;;;;14.75;7.97;;;14.60;99.90;;;;;;4881806;29;20028;-84
2022/05/19 06:27:15;;;;;;;13.43;7.63;;;14.70;99.90;;;;;;4899340;29;20038;-83
2022/05/19 06:29:41;;;;;;;10.98;6.80;;;14.80;99.90;;;;;;4900071;29;20032;-80
2022/05/19 06:32:08;;;;;;;11.90;7.55;;;15.00;99.90;;;;;;4910438;29;20024;-81
2022/05/19 06:34:34;;;;;;;11.65;6.75;;;15.10;99.90;;;;;;4899237;29;20502;-80
2022/05/19 06:37:00;;;;;;;16.02;7.40;;;15.10;99.90;;;;;;4901170;29;20028;-81
2022/05/19 06:39:25;;;;;;;11.43;7.28;;;15.10;99.90;;;;;;4908775;29;20112;-80
2022/05/19 06:42:00;;;;;;;10.70;7.10;;;15.00;99.90;;;;;;4901047;29;20032;-81
2022/05/19 06:44:39;;;;;;;10.18;6.63;;;14.90;99.90;;;;;;4904216;29;20036;-81
2022/05/19 06:47:13;;;;;;;12.02;7.10;;;14.80;99.90;;;;;;4898907;29;20128;-81
2022/05/19 06:49:51;;;;;;;13.80;7.53;;;14.70;99.90;;;;;;4898229;29;20553;-81
2022/05/19 06:52:23;;;;;;;11.38;6.28;;;14.70;99.90;;;;;;4892478;29;20190;-82
2022/05/19 06:54:54;;;;;;;10.40;6.28;;;14.70;99.90;;;;;;4901878;29;20029;-82
2022/05/19 06:57:22;;;;;;;9.25;5.97;;;14.60;99.90;;;;;;4901040;29;20052;-82
2022/05/19 06:59:49;;;;;;;9.70;6.43;;;14.60;99.90;;;;;;4897794;29;20032;-82
2022/05/19 07:02:15;;;;;;;9.60;6.50;;;14.60;99.90;;;;;;4885751;29;20168;-82
2022/05/19 07:04:41;;;;;;;10.90;6.72;;;14.60;99.90;;;;;;4904690;29;20013;-82
2022/05/19 07:07:07;;;;;;;12.82;6.95;;;14.60;99.90;;;;;;4898592;29;20560;-83
2022/05/19 07:09:34;;;;;;;10.68;6.63;;;14.60;99.90;;;;;;4897768;29;20024;-83
2022/05/19 07:12:01;;;;;;;9.23;6.35;;;14.50;99.90;;;;;;4898081;29;20024;-83
2022/05/19 07:14:27;;;;;;;12.52;6.05;;;14.50;99.90;;;;;;4897797;29;20024;-82
2022/05/19 07:16:54;;;;;;;8.88;5.82;;;14.50;99.90;;;;;;4897758;29;20080;-82
2022/05/19 07:22:05;;;;;;;7.47;5.32;;;14.50;99.90;;;;;;4898303;29;20031;-81
2022/05/19 07:24:31;;;;;;;6.72;4.68;;;14.50;99.90;;;;;;4902444;29;20029;-82
2022/05/19 07:26:58;;;;;;;9.52;5.03;;;14.40;99.90;;;;;;4902489;29;20024;-81
2022/05/19 07:29:25;;;;;;;9.18;5.15;;;14.40;99.90;;;;;;4902681;29;20021;-81
2022/05/19 07:31:52;;;;;;;9.35;5.60;;;14.50;99.90;;;;;;4897593;29;20029;-81
2022/05/19 07:34:22;;;;;;;10.50;5.50;;;14.60;99.90;;;;;;4893376;29;20021;-81
2022/05/19 07:36:48;;;;;;;9.05;5.57;;;14.70;99.90;;;;;;4878772;29;20028;-81
2022/05/19 07:39:15;;;;;;;7.00;5.18;;;14.90;99.90;;;;;;4897816;29;20038;-81
2022/05/19 07:41:41;;;;;;;7.97;4.72;;;15.00;99.90;;;;;;4897498;29;20119;-82
2022/05/19 07:44:07;;;;;;;11.35;5.15;;;15.10;99.90;;;;;;4897658;29;20020;-81
2022/05/19 07:46:34;;;;;;;7.40;4.45;;;15.10;99.90;;;;;;4901682;29;20687;-80
2022/05/19 07:49:00;;;;;;;9.02;5.13;;;15.20;99.90;;;;;;4896801;29;20024;-81
2022/05/19 07:51:36;;;;;;;7.43;4.78;;;15.20;99.90;;;;;;4897489;29;20021;-81
2022/05/19 07:54:04;;;;;;;6.85;5.00;;;15.30;99.90;;;;;;4886501;29;20020;-81
2022/05/19 07:56:30;;;;;;;11.05;4.60;;;15.20;99.90;;;;;;4897018;29;20035;-81
2022/05/19 07:58:55;;;;;;;7.55;4.18;;;15.30;99.90;;;;;;4895777;29;20024;-81
2022/05/19 08:01:21;;;;;;;7.40;4.88;;;15.30;99.90;;;;;;4900795;29;20632;-81
2022/05/19 08:03:47;;;;;;;8.93;4.72;;;15.20;99.90;;;;;;4897610;29;20016;-81
2022/05/19 08:06:13;;;;;;;7.30;4.75;;;15.20;99.90;;;;;;4897405;29;20491;-81
2022/05/19 08:08:39;;;;;;;6.53;4.00;;;15.10;99.90;;;;;;4897847;29;20454;-81
2022/05/19 08:11:06;;;;;;;8.98;3.70;;;15.10;99.90;;;;;;4897058;29;20039;-81
2022/05/19 08:16:17;;;;;;;4.30;3.17;;;15.10;99.90;;;;;;4898427;29;20107;-80
2022/05/19 08:18:43;;;;;;;5.90;3.08;;;15.20;99.90;;;;;;4881261;29;20032;-81
2022/05/19 08:21:11;;;;;;;3.97;3.03;;;15.20;99.90;;;;;;4880052;29;20030;-81
2022/05/19 08:23:50;;;;;;;3.20;2.15;;;15.30;99.90;;;;;;4897169;29;20533;-81
2022/05/19 08:26:16;;;;;;;3.80;2.50;;;15.40;99.90;;;;;;4896614;29;20020;-81
2022/05/19 08:28:43;;;;;;;6.20;2.28;;;15.60;99.90;;;;;;4896532;29;20529;-81
2022/05/19 08:31:16;;;;;;;2.47;1.52;;;15.80;99.90;;;;;;4896786;29;20036;-81
2022/05/19 08:33:44;;;;;;;2.75;1.73;;;15.90;99.90;;;;;;4897480;29;20423;-81
2022/05/19 08:36:10;;;;;;;7.57;2.70;;;16.20;99.90;;;;;;4896554;29;20043;-81
2022/05/19 08:38:37;;;;;;;4.32;2.10;;;16.30;99.90;;;;;;4879418;29;20021;-81
2022/05/19 08:41:09;;;;;;;3.15;2.15;;;16.60;99.90;;;;;;4896264;29;20478;-81
2022/05/19 08:43:47;;;;;;;4.00;2.17;;;16.80;99.90;;;;;;4897170;29;20020;-81
2022/05/19 08:46:25;;;;;;;2.92;1.38;;;17.20;99.90;;;;;;4896436;29;20088;-81
2022/05/19 08:48:55;;;;;;;3.10;1.60;;;17.40;99.90;;;;;;4897215;29;20028;-81
2022/05/19 08:51:28;;;;;;;1.58;1.33;;;17.50;99.90;;;;;;4896803;29;20028;-83
2022/05/19 08:54:02;;;;;;;3.40;1.42;;;17.50;99.90;;;;;;4879676;29;20024;-81
2022/05/19 08:56:42;;;;;;;3.33;1.40;;;17.50;99.90;;;;;;4879435;29;20029;-82
2022/05/19 08:59:14;;;;;;;1.17;1.10;;;17.60;99.90;;;;;;4896742;29;20145;-82
2022/05/19 09:01:49;;;;;;;1.60;1.50;;;17.70;99.90;;;;;;4896348;29;20522;-84
2022/05/19 09:04:21;;;;;;;4.38;1.83;;;17.90;99.90;;;;;;4897012;29;20033;-83
2022/05/19 09:10:02;;;;;;;2.22;2.03;;;17.80;99.90;;;;;;4896201;29;20071;-82
2022/05/19 09:12:32;;;;;;;5.22;2.10;;;17.60;99.90;;;;;;4879895;29;20029;-86
2022/05/19 09:14:58;;;;;;;2.10;1.70;;;17.60;99.90;;;;;;4895839;29;20029;-85
2022/05/19 09:17:31;;;;;;;3.40;2.17;;;17.50;99.90;;;;;;4896918;29;20030;-84
2022/05/19 09:20:02;;;;;;;2.75;1.42;;;17.80;99.90;;;;;;4879215;29;20025;-83
2022/05/19 09:22:33;;;;;;;1.90;1.60;;;18.50;99.90;;;;;;4895665;29;20056;-81
2022/05/19 09:25:04;;;;;;;2.92;1.25;;;19.10;99.90;;;;;;4896215;29;20032;-85
2022/05/19 09:27:32;;;;;;;1.85;1.27;;;19.90;99.90;;;;;;4896462;29;20486;-84
2022/05/19 09:29:58;;;;;;;2.88;1.00;;;20.30;99.90;;;;;;4895589;29;20067;-82
2022/05/19 09:32:34;;;;;;;2.17;1.13;;;21.10;99.90;;;;;;4896062;29;20107;-83
2022/05/19 09:35:09;;;;;;;2.10;1.10;;;22.10;99.90;;;;;;4895161;29;20538;-82
2022/05/19 09:37:43;;;;;;;1.73;1.00;;;23.20;99.90;;;;;;4896338;29;20095;-86
2022/05/19 09:40:11;;;;;;;1.67;0.70;;;23.50;97.30;;;;;;4884132;29;20025;-84
2022/05/19 09:42:53;;;;;;;2.17;1.08;;;23.50;95.70;;;;;;4896400;29;20028;-82
2022/05/19 09:45:27;;;;;;;0.95;0.73;;;23.90;93.20;;;;;;4895938;29;20048;-84
2022/05/19 09:47:58;;;;;;;4.10;1.02;;;24.40;90.90;;;;;;4879410;29;20490;-81
2022/05/19 09:50:27;;;;;;;1.27;0.77;;;24.90;91.40;;;;;;4902347;29;20111;-81
2022/05/19 09:53:05;;;;;;;1.65;1.10;;;26.00;80.00;;;;;;4896014;29;20381;-83
2022/05/19 09:55:39;;;;;;;1.77;1.10;;;26.30;79.90;;;;;;4898751;29;20470;-84
2022/05/19 09:58:09;;;;;;;1.85;0.45;;;27.10;76.10;;;;;;4900047;29;20466;-84
2022/05/19 10:00:52;;;;;;;2.00;0.77;;;27.50;69.10;;;;;;4899454;29;20029;-84
2022/05/19 10:03:41;;;;;;;1.88;0.73;;;28.10;69.80;;;;;;4901717;29;21087;-84
2022/05/19 10:06:15;;;;;;;1.38;1.02;;;28.30;63.00;;;;;;4898335;29;20037;-84
2022/05/19 10:08:44;;;;;;;0.50;0.50;;;27.40;66.30;;;;;;4899580;29;20390;-84
2022/05/19 10:11:17;;;;;;;0.85;0.70;;;27.60;62.30;;;;;;4899013;29;20100;-86
2022/05/19 10:13:49;;;;;;;1.55;0.60;;;27.00;70.00;;;;;;4899357;29;20020;-85
2022/05/19 10:16:45;;;;;;;2.60;0.80;;;27.10;66.20;;;;;;4883133;29;20454;-82
2022/05/19 10:19:23;;;;;;;0.75;0.38;;;28.30;62.70;;;;;;4898763;29;20012;-86
2022/05/19 10:22:07;;;;;;;1.83;0.80;;;28.00;64.60;;;;;;4888577;29;20081;-85
2022/05/19 10:24:52;;;;;;;2.10;0.98;;;26.60;62.80;;;;;;4898413;29;20028;-82
2022/05/19 10:33:33;;;;;;;3.33;0.90;;;26.50;68.50;;;;;;4899491;29;20104;-82
2022/05/19 10:36:16;;;;;;;4.07;0.85;;;27.80;66.00;;;;;;4898295;29;20390;-83
2022/05/19 10:38:56;;;;;;;1.73;0.82;;;28.60;61.40;;;;;;4898791;29;20394;-82
2022/05/19 10:41:49;;;;;;;1.50;0.82;;;28.00;63.90;;;;;;4898300;29;20081;-84
2022/05/19 10:44:46;;;;;;;2.38;0.98;;;27.00;66.40;;;;;;4881686;29;20035;-83
2022/05/19 10:47:30;;;;;;;2.78;0.77;;;26.80;66.70;;;;;;4833794;29;20489;-84
2022/05/19 10:49:59;;;;;;;1.35;0.85;;;26.60;64.40;;;;;;4902281;29;20024;-83
2022/05/19 10:53:06;;;;;;;0.85;0.80;;;25.90;65.00;;;;;;4900795;29;20063;-81
2022/05/19 10:55:41;;;;;;;2.90;1.13;;;25.90;65.80;;;;;;4896578;29;20428;-83
2022/05/19 10:58:21;;;;;;;2.63;0.90;;;25.80;69.70;;;;;;4898852;29;20056;-82
2022/05/19 11:01:15;;;;;;;1.60;0.80;;;25.80;70.60;;;;;;4898148;29;20024;-81
2022/05/19 11:03:58;;;;;;;0.95;0.80;;;25.50;70.10;;;;;;4899637;29;20028;-82
2022/05/19 11:06:59;;;;;;;2.33;0.80;;;25.00;66.40;;;;;;4880564;29;20371;-82
2022/05/19 11:09:42;;;;;;;1.35;0.90;;;24.30;73.50;;;;;;4898060;29;20036;-82
2022/05/19 11:12:30;;;;;;;1.83;1.00;;;24.90;74.40;;;;;;4898786;29;20063;-82
2022/05/19 11:15:26;;;;;;;2.03;0.90;;;26.20;67.60;;;;;;4898369;29;20053;-82
2022/05/19 11:17:56;;;;;;;3.95;1.17;;;27.60;67.90;;;;;;4898560;29;20031;-83
2022/05/19 11:20:34;;;;;;;3.65;0.90;;;28.40;60.60;;;;;;4898075;29;20044;-82
2022/05/19 11:23:33;;;;;;;1.90;1.00;;;29.20;60.70;;;;;;4898370;29;20029;-82
2022/05/19 11:26:24;;;;;;;2.60;1.17;;;29.60;58.40;;;;;;4897566;29;20029;-81
2022/05/19 11:28:53;;;;;;;4.03;1.33;;;30.20;58.50;;;;;;4902989;29;20163;-82
2022/05/19 11:31:48;;;;;;;4.45;1.00;;;30.70;56.80;;;;;;4896956;29;20718;-82
2022/05/19 11:34:35;;;;;;;3.42;1.02;;;29.80;55.90;;;;;;4866635;29;20544;-81
2022/05/19 11:37:20;;;;;;;3.03;1.10;;;29.90;53.40;;;;;;4898116;29;20497;-84
2022/05/19 11:39:59;;;;;;;2.38;1.10;;;30.00;55.30;;;;;;4897599;29;20036;-83
2022/05/19 11:42:52;;;;;;;1.88;1.00;;;30.80;53.00;;;;;;4898194;29;20048;-84
2022/05/19 11:45:36;;;;;;;3.30;1.05;;;30.90;54.90;;;;;;4897710;29;20028;-82
2022/05/19 11:57:29;;;;;;;2.05;0.70;;;30.60;48.70;;;;;;4896505;29;20084;-83
2022/05/19 11:59:58;;;;;;;3.08;1.10;;;31.40;50.30;;;;;;4884459;29;20435;-82
2022/05/19 12:02:38;;;;;;;2.85;1.27;;;31.90;49.00;;;;;;4898723;29;20024;-83
2022/05/19 12:05:20;;;;;;;2.67;1.00;;;31.90;46.50;;;;;;4896252;29;20062;-84
2022/05/19 12:07:54;;;;;;;9.73;1.55;;;31.00;49.80;;;;;;4897584;29;20512;-82
2022/05/19 12:10:36;;;;;;;3.08;1.35;;;30.80;48.20;;;;;;4897254;29;20115;-83
2022/05/19 12:13:03;;;;;;;2.67;1.20;;;30.30;50.50;;;;;;4897685;29;20076;-85
2022/05/19 12:15:33;;;;;;;3.80;1.15;;;31.30;52.10;;;;;;4897074;29;20402;-84
2022/05/19 12:18:31;;;;;;;3.85;1.13;;;31.20;49.00;;;;;;4879597;29;20028;-82
2022/05/19 12:21:00;;;;;;;3.88;1.83;;;32.00;51.10;;;;;;4879255;29;20449;-85
2022/05/19 12:23:35;;;;;;;3.40;1.40;;;31.80;46.20;;;;;;4896758;29;20029;-83
2022/05/19 12:26:04;;;;;;;3.17;1.20;;;31.90;49.30;;;;;;4896224;29;20024;-82
2022/05/19 12:28:38;;;;;;;6.10;1.40;;;32.10;47.60;;;;;;4896657;29;20192;-83
2022/05/19 12:34:14;;;;;;;2.55;0.80;;;31.90;47.00;;;;;;4896802;29;20060;-82
2022/05/19 12:37:04;;;;;;;2.08;0.90;;;31.40;47.10;;;;;;4896342;29;20479;-83
2022/05/19 12:39:41;;;;;;;0.88;0.63;;;30.40;47.60;;;;;;4895692;29;20036;-82
2022/05/19 12:42:19;;;;;;;4.72;1.02;;;31.40;48.60;;;;;;4896430;29;20102;-83
2022/05/19 12:44:50;;;;;;;2.78;0.70;;;31.60;47.70;;;;;;4895159;29;20075;-84
2022/05/19 12:47:21;;;;;;;4.47;0.93;;;31.50;46.90;;;;;;4896316;29;20398;-84
2022/05/19 12:50:03;;;;;;;2.58;0.77;;;31.80;46.00;;;;;;4895223;29;20547;-83
2022/05/19 12:52:54;;;;;;;4.93;0.93;;;32.30;45.40;;;;;;4896022;29;20083;-86
2022/05/19 12:55:23;;;;;;;5.50;1.17;;;32.30;45.60;;;;;;4895120;29;20482;-82
2022/05/19 12:57:58;;;;;;;3.97;1.13;;;31.80;46.60;;;;;;4896296;29;20466;-84
2022/05/19 13:00:26;;;;;;;3.35;0.77;;;31.90;45.30;;;;;;4895982;29;20028;-83
2022/05/19 13:03:14;;;;;;;2.72;0.80;;;31.90;47.50;;;;;;4903658;29;20024;-83
2022/05/19 13:05:49;;;;;;;5.32;1.10;;;31.70;45.30;;;;;;4914771;29;20028;-83
2022/05/19 13:08:32;;;;;;;2.50;0.70;;;32.20;46.80;;;;;;4915245;29;20083;-82
2022/05/19 13:11:00;;;;;;;4.60;1.08;;;31.10;45.90;;;;;;4914458;29;20040;-84
2022/05/19 13:13:40;;;;;;;3.10;0.80;;;31.40;45.70;;;;;;4915216;29;20115;-82
2022/05/19 13:16:32;;;;;;;4.43;0.70;;;31.60;47.10;;;;;;4915048;29;20024;-83
2022/05/19 13:19:00;;;;;;;2.03;0.70;;;32.90;46.50;;;;;;4896813;29;20028;-83
2022/05/19 13:21:34;;;;;;;3.80;0.90;;;32.80;43.20;;;;;;4914635;29;20358;-84
2022/05/19 13:24:07;;;;;;;2.83;1.20;;;31.90;44.30;;;;;;4898549;29;20036;-83
2022/05/19 13:26:39;;;;;;;3.75;1.17;;;31.00;46.50;;;;;;4914966;29;20020;-80
2022/05/19 13:32:02;;;;;;;3.60;0.80;;;32.50;45.80;;;;;;4919021;29;20662;-82
2022/05/19 13:34:41;;;;;;;5.07;1.20;;;32.30;44.80;;;;;;4918367;29;20750;-85
2022/05/19 13:37:07;;;;;;;6.70;0.75;;;31.40;44.70;;;;;;4918802;29;20020;-81
2022/05/19 13:39:33;;;;;;;4.22;0.82;;;30.60;45.30;;;;;;4918435;29;20515;-82